sensor_id;sensor_type;location;lat;lon;timestamp;P1;durP1;ratioP1;P2;durP2;ratioP2
43184;SDS011;28803;52.308;19.096;2022-08-07T00:02:11;3.75;;;1.40;;
43184;SDS011;28803;52.308;19.096;2022-08-07T00:04:58;3.17;;;1.30;;
43184;SDS011;28803;52.308;19.096;2022-08-07T00:07:25;2.05;;;1.13;;
43184;SDS011;28803;52.308;19.096;2022-08-07T00:10:06;4.18;;;1.05;;
43184;SDS011;28803;52.308;19.096;2022-08-07T00:12:53;3.08;;;1.20;;
43184;SDS011;28803;52.308;19.096;2022-08-07T00:15:27;4.40;;;1.33;;
43184;SDS011;28803;52.308;19.096;2022-08-07T00:18:03;2.42;;;1.35;;
43184;SDS011;28803;52.308;19.096;2022-08-07T00:20:30;5.85;;;1.67;;
43184;SDS011;28803;52.308;19.096;2022-08-07T00:23:00;3.60;;;1.55;;
43184;SDS011;28803;52.308;19.096;2022-08-07T00:25:34;2.72;;;1.05;;
43184;SDS011;28803;52.308;19.096;2022-08-07T00:30:36;1.73;;;1.10;;
43184;SDS011;28803;52.308;19.096;2022-08-07T00:33:03;1.83;;;1.38;;
43184;SDS011;28803;52.308;19.096;2022-08-07T00:35:33;4.05;;;1.13;;
43184;SDS011;28803;52.308;19.096;2022-08-07T00:38:02;3.33;;;1.20;;
43184;SDS011;28803;52.308;19.096;2022-08-07T00:40:29;4.30;;;1.30;;
43184;SDS011;28803;52.308;19.096;2022-08-07T00:43:07;3.88;;;1.33;;
43184;SDS011;28803;52.308;19.096;2022-08-07T00:45:55;2.95;;;1.25;;
43184;SDS011;28803;52.308;19.096;2022-08-07T00:48:23;4.45;;;1.40;;
43184;SDS011;28803;52.308;19.096;2022-08-07T00:50:57;5.78;;;1.52;;
43184;SDS011;28803;52.308;19.096;2022-08-07T00:53:26;2.28;;;1.42;;
43184;SDS011;28803;52.308;19.096;2022-08-07T00:56:04;5.20;;;1.92;;
43184;SDS011;28803;52.308;19.096;2022-08-07T00:58:42;4.97;;;1.70;;
43184;SDS011;28803;52.308;19.096;2022-08-07T01:01:13;2.33;;;1.40;;
43184;SDS011;28803;52.308;19.096;2022-08-07T01:03:41;4.05;;;1.40;;
43184;SDS011;28803;52.308;19.096;2022-08-07T01:06:22;4.43;;;1.20;;
43184;SDS011;28803;52.308;19.096;2022-08-07T01:08:50;4.57;;;1.52;;
43184;SDS011;28803;52.308;19.096;2022-08-07T01:11:21;4.57;;;2.08;;
43184;SDS011;28803;52.308;19.096;2022-08-07T01:14:09;2.97;;;1.38;;
43184;SDS011;28803;52.308;19.096;2022-08-07T01:16:36;3.88;;;1.60;;
43184;SDS011;28803;52.308;19.096;2022-08-07T01:19:06;3.55;;;1.50;;
43184;SDS011;28803;52.308;19.096;2022-08-07T01:21:44;2.65;;;1.58;;
43184;SDS011;28803;52.308;19.096;2022-08-07T01:24:13;4.55;;;1.55;;
43184;SDS011;28803;52.308;19.096;2022-08-07T01:26:48;5.50;;;1.65;;
43184;SDS011;28803;52.308;19.096;2022-08-07T01:29:17;2.85;;;1.50;;
43184;SDS011;28803;52.308;19.096;2022-08-07T01:31:48;5.70;;;2.55;;
43184;SDS011;28803;52.308;19.096;2022-08-07T01:34:15;2.53;;;1.33;;
43184;SDS011;28803;52.308;19.096;2022-08-07T01:36:44;2.53;;;1.40;;
43184;SDS011;28803;52.308;19.096;2022-08-07T01:39:24;3.42;;;1.50;;
43184;SDS011;28803;52.308;19.096;2022-08-07T01:42:12;5.38;;;2.00;;
43184;SDS011;28803;52.308;19.096;2022-08-07T01:45:01;14.50;;;1.77;;
43184;SDS011;28803;52.308;19.096;2022-08-07T01:47:29;4.97;;;2.00;;
43184;SDS011;28803;52.308;19.096;2022-08-07T01:50:16;5.63;;;1.83;;
43184;SDS011;28803;52.308;19.096;2022-08-07T01:52:55;4.05;;;1.75;;
43184;SDS011;28803;52.308;19.096;2022-08-07T01:55:25;3.75;;;1.98;;
43184;SDS011;28803;52.308;19.096;2022-08-07T01:57:54;5.28;;;2.00;;
43184;SDS011;28803;52.308;19.096;2022-08-07T02:00:44;4.60;;;1.70;;
43184;SDS011;28803;52.308;19.096;2022-08-07T02:03:15;6.22;;;1.75;;
43184;SDS011;28803;52.308;19.096;2022-08-07T02:05:58;4.40;;;1.92;;
43184;SDS011;28803;52.308;19.096;2022-08-07T02:08:49;4.63;;;1.67;;
43184;SDS011;28803;52.308;19.096;2022-08-07T02:11:20;8.85;;;1.90;;
43184;SDS011;28803;52.308;19.096;2022-08-07T02:14:07;3.97;;;2.00;;
43184;SDS011;28803;52.308;19.096;2022-08-07T02:16:56;4.07;;;2.00;;
43184;SDS011;28803;52.308;19.096;2022-08-07T02:19:24;2.95;;;1.80;;
43184;SDS011;28803;52.308;19.096;2022-08-07T02:22:12;6.40;;;1.50;;
43184;SDS011;28803;52.308;19.096;2022-08-07T02:24:43;5.07;;;1.75;;
43184;SDS011;28803;52.308;19.096;2022-08-07T02:27:14;2.75;;;1.38;;
43184;SDS011;28803;52.308;19.096;2022-08-07T02:29:44;4.18;;;1.48;;
43184;SDS011;28803;52.308;19.096;2022-08-07T02:32:20;4.28;;;1.67;;
43184;SDS011;28803;52.308;19.096;2022-08-07T02:34:55;3.95;;;1.90;;
43184;SDS011;28803;52.308;19.096;2022-08-07T02:37:26;3.30;;;1.58;;
43184;SDS011;28803;52.308;19.096;2022-08-07T02:40:02;4.70;;;1.75;;
43184;SDS011;28803;52.308;19.096;2022-08-07T02:42:51;8.57;;;1.80;;
43184;SDS011;28803;52.308;19.096;2022-08-07T02:45:21;4.18;;;1.92;;
43184;SDS011;28803;52.308;19.096;2022-08-07T02:48:12;4.40;;;2.00;;
43184;SDS011;28803;52.308;19.096;2022-08-07T02:50:44;3.10;;;1.63;;
43184;SDS011;28803;52.308;19.096;2022-08-07T02:53:30;5.45;;;1.60;;
43184;SDS011;28803;52.308;19.096;2022-08-07T02:56:05;6.57;;;1.63;;
43184;SDS011;28803;52.308;19.096;2022-08-07T02:58:48;2.95;;;1.50;;
43184;SDS011;28803;52.308;19.096;2022-08-07T03:04:02;3.72;;;1.70;;
43184;SDS011;28803;52.308;19.096;2022-08-07T03:06:38;6.25;;;2.30;;
43184;SDS011;28803;52.308;19.096;2022-08-07T03:09:07;6.20;;;2.30;;
43184;SDS011;28803;52.308;19.096;2022-08-07T03:11:36;6.78;;;2.10;;
43184;SDS011;28803;52.308;19.096;2022-08-07T03:14:23;8.93;;;2.55;;
43184;SDS011;28803;52.308;19.096;2022-08-07T03:16:53;2.97;;;2.25;;
43184;SDS011;28803;52.308;19.096;2022-08-07T03:19:21;4.25;;;2.42;;
43184;SDS011;28803;52.308;19.096;2022-08-07T03:21:54;6.63;;;2.58;;
43184;SDS011;28803;52.308;19.096;2022-08-07T03:24:24;4.18;;;2.80;;
43184;SDS011;28803;52.308;19.096;2022-08-07T03:26:54;5.07;;;2.58;;
43184;SDS011;28803;52.308;19.096;2022-08-07T03:29:33;6.18;;;3.13;;
43184;SDS011;28803;52.308;19.096;2022-08-07T03:32:15;8.65;;;2.97;;
43184;SDS011;28803;52.308;19.096;2022-08-07T03:34:48;8.73;;;3.05;;
43184;SDS011;28803;52.308;19.096;2022-08-07T03:37:36;5.63;;;2.95;;
43184;SDS011;28803;52.308;19.096;2022-08-07T03:40:19;5.43;;;2.85;;
43184;SDS011;28803;52.308;19.096;2022-08-07T03:42:47;5.75;;;2.95;;
43184;SDS011;28803;52.308;19.096;2022-08-07T03:45:17;8.88;;;2.80;;
43184;SDS011;28803;52.308;19.096;2022-08-07T03:47:57;4.68;;;2.53;;
43184;SDS011;28803;52.308;19.096;2022-08-07T03:50:24;5.13;;;2.40;;
43184;SDS011;28803;52.308;19.096;2022-08-07T03:52:54;5.35;;;2.58;;
43184;SDS011;28803;52.308;19.096;2022-08-07T03:55:26;4.78;;;2.50;;
43184;SDS011;28803;52.308;19.096;2022-08-07T03:58:15;7.82;;;2.78;;
43184;SDS011;28803;52.308;19.096;2022-08-07T04:01:05;9.93;;;3.03;;
43184;SDS011;28803;52.308;19.096;2022-08-07T04:03:37;5.20;;;2.80;;
43184;SDS011;28803;52.308;19.096;2022-08-07T04:06:20;7.32;;;2.65;;
43184;SDS011;28803;52.308;19.096;2022-08-07T04:09:04;7.82;;;3.13;;
43184;SDS011;28803;52.308;19.096;2022-08-07T04:11:41;6.90;;;2.17;;
43184;SDS011;28803;52.308;19.096;2022-08-07T04:14:31;5.72;;;2.58;;
43184;SDS011;28803;52.308;19.096;2022-08-07T04:17:03;4.47;;;2.53;;
43184;SDS011;28803;52.308;19.096;2022-08-07T04:19:46;6.75;;;2.95;;
43184;SDS011;28803;52.308;19.096;2022-08-07T04:22:23;5.43;;;3.03;;
43184;SDS011;28803;52.308;19.096;2022-08-07T04:24:53;2.38;;;2.03;;
43184;SDS011;28803;52.308;19.096;2022-08-07T04:27:24;7.07;;;2.40;;
43184;SDS011;28803;52.308;19.096;2022-08-07T04:29:51;5.38;;;2.30;;
43184;SDS011;28803;52.308;19.096;2022-08-07T04:32:28;6.97;;;2.38;;
43184;SDS011;28803;52.308;19.096;2022-08-07T04:35:04;3.65;;;2.53;;
43184;SDS011;28803;52.308;19.096;2022-08-07T04:37:36;4.00;;;2.33;;
43184;SDS011;28803;52.308;19.096;2022-08-07T04:40:24;3.83;;;2.40;;
43184;SDS011;28803;52.308;19.096;2022-08-07T04:42:55;7.57;;;2.45;;
43184;SDS011;28803;52.308;19.096;2022-08-07T04:45:33;4.03;;;2.38;;
43184;SDS011;28803;52.308;19.096;2022-08-07T04:48:32;8.55;;;3.13;;
43184;SDS011;28803;52.308;19.096;2022-08-07T04:51:39;4.53;;;1.85;;
43184;SDS011;28803;52.308;19.096;2022-08-07T04:54:54;5.15;;;2.05;;
43184;SDS011;28803;52.308;19.096;2022-08-07T05:00:07;4.22;;;1.60;;
43184;SDS011;28803;52.308;19.096;2022-08-07T05:02:57;4.32;;;1.80;;
43184;SDS011;28803;52.308;19.096;2022-08-07T05:06:04;4.03;;;1.73;;
43184;SDS011;28803;52.308;19.096;2022-08-07T05:09:00;4.53;;;1.90;;
43184;SDS011;28803;52.308;19.096;2022-08-07T05:11:39;6.55;;;1.30;;
43184;SDS011;28803;52.308;19.096;2022-08-07T05:14:38;7.25;;;1.30;;
43184;SDS011;28803;52.308;19.096;2022-08-07T05:17:28;3.47;;;1.65;;
43184;SDS011;28803;52.308;19.096;2022-08-07T05:20:17;5.53;;;1.50;;
43184;SDS011;28803;52.308;19.096;2022-08-07T05:22:52;5.00;;;1.35;;
43184;SDS011;28803;52.308;19.096;2022-08-07T05:25:23;3.33;;;1.00;;
43184;SDS011;28803;52.308;19.096;2022-08-07T05:28:12;3.30;;;1.20;;
43184;SDS011;28803;52.308;19.096;2022-08-07T05:30:50;6.80;;;2.10;;
43184;SDS011;28803;52.308;19.096;2022-08-07T05:33:19;5.80;;;1.23;;
43184;SDS011;28803;52.308;19.096;2022-08-07T05:35:48;4.60;;;1.65;;
43184;SDS011;28803;52.308;19.096;2022-08-07T05:38:20;1.80;;;0.73;;
43184;SDS011;28803;52.308;19.096;2022-08-07T05:41:09;2.25;;;0.85;;
43184;SDS011;28803;52.308;19.096;2022-08-07T05:43:40;4.75;;;0.93;;
43184;SDS011;28803;52.308;19.096;2022-08-07T05:46:29;2.92;;;1.05;;
43184;SDS011;28803;52.308;19.096;2022-08-07T05:48:56;3.08;;;1.02;;
43184;SDS011;28803;52.308;19.096;2022-08-07T05:51:25;2.97;;;0.85;;
43184;SDS011;28803;52.308;19.096;2022-08-07T05:53:59;3.33;;;0.70;;
43184;SDS011;28803;52.308;19.096;2022-08-07T05:56:47;2.45;;;0.73;;
43184;SDS011;28803;52.308;19.096;2022-08-07T05:59:17;2.65;;;1.10;;
43184;SDS011;28803;52.308;19.096;2022-08-07T06:01:46;2.72;;;0.80;;
43184;SDS011;28803;52.308;19.096;2022-08-07T06:04:15;2.15;;;0.68;;
43184;SDS011;28803;52.308;19.096;2022-08-07T06:06:45;5.07;;;0.88;;
43184;SDS011;28803;52.308;19.096;2022-08-07T06:09:21;2.10;;;0.60;;
43184;SDS011;28803;52.308;19.096;2022-08-07T06:12:10;2.80;;;0.70;;
43184;SDS011;28803;52.308;19.096;2022-08-07T06:14:41;4.10;;;0.52;;
43184;SDS011;28803;52.308;19.096;2022-08-07T06:17:16;3.65;;;0.68;;
43184;SDS011;28803;52.308;19.096;2022-08-07T06:19:47;2.38;;;0.50;;
43184;SDS011;28803;52.308;19.096;2022-08-07T06:22:29;4.43;;;0.70;;
43184;SDS011;28803;52.308;19.096;2022-08-07T06:25:05;4.18;;;1.10;;
43184;SDS011;28803;52.308;19.096;2022-08-07T06:27:35;3.85;;;0.80;;
43184;SDS011;28803;52.308;19.096;2022-08-07T06:30:22;3.65;;;0.70;;
43184;SDS011;28803;52.308;19.096;2022-08-07T06:33:03;4.70;;;1.02;;
43184;SDS011;28803;52.308;19.096;2022-08-07T06:35:41;1.83;;;0.50;;
43184;SDS011;28803;52.308;19.096;2022-08-07T06:38:29;3.75;;;0.50;;
43184;SDS011;28803;52.308;19.096;2022-08-07T06:40:56;3.17;;;0.82;;
43184;SDS011;28803;52.308;19.096;2022-08-07T06:43:27;2.00;;;0.60;;
43184;SDS011;28803;52.308;19.096;2022-08-07T06:46:06;2.20;;;0.60;;
43184;SDS011;28803;52.308;19.096;2022-08-07T06:48:38;1.20;;;0.47;;
43184;SDS011;28803;52.308;19.096;2022-08-07T06:51:17;3.28;;;0.68;;
43184;SDS011;28803;52.308;19.096;2022-08-07T06:53:58;2.40;;;0.68;;
43184;SDS011;28803;52.308;19.096;2022-08-07T06:56:49;7.18;;;0.98;;
43184;SDS011;28803;52.308;19.096;2022-08-07T06:59:18;2.17;;;0.52;;
43184;SDS011;28803;52.308;19.096;2022-08-07T07:02:17;2.40;;;0.50;;
43184;SDS011;28803;52.308;19.096;2022-08-07T07:05:06;2.75;;;0.63;;
43184;SDS011;28803;52.308;19.096;2022-08-07T07:07:38;2.90;;;0.77;;
43184;SDS011;28803;52.308;19.096;2022-08-07T07:10:26;2.50;;;0.82;;
43184;SDS011;28803;52.308;19.096;2022-08-07T07:13:01;2.45;;;1.02;;
43184;SDS011;28803;52.308;19.096;2022-08-07T07:15:40;2.40;;;0.57;;
43184;SDS011;28803;52.308;19.096;2022-08-07T07:19:18;3.08;;;0.60;;
43184;SDS011;28803;52.308;19.096;2022-08-07T07:21:25;2.55;;;0.82;;
43184;SDS011;28803;52.308;19.096;2022-08-07T07:24:15;1.38;;;0.80;;
43184;SDS011;28803;52.308;19.096;2022-08-07T07:26:43;3.20;;;0.60;;
43184;SDS011;28803;52.308;19.096;2022-08-07T07:29:19;6.80;;;0.90;;
43184;SDS011;28803;52.308;19.096;2022-08-07T07:32:10;3.92;;;0.80;;
43184;SDS011;28803;52.308;19.096;2022-08-07T07:34:41;4.47;;;0.80;;
43184;SDS011;28803;52.308;19.096;2022-08-07T07:37:14;2.25;;;0.90;;
43184;SDS011;28803;52.308;19.096;2022-08-07T07:40:04;6.43;;;0.70;;
43184;SDS011;28803;52.308;19.096;2022-08-07T07:42:41;3.30;;;0.70;;
43184;SDS011;28803;52.308;19.096;2022-08-07T07:45:24;2.67;;;0.68;;
43184;SDS011;28803;52.308;19.096;2022-08-07T07:48:14;2.70;;;0.68;;
43184;SDS011;28803;52.308;19.096;2022-08-07T07:51:02;1.45;;;0.40;;
43184;SDS011;28803;52.308;19.096;2022-08-07T07:53:37;4.87;;;1.13;;
43184;SDS011;28803;52.308;19.096;2022-08-07T07:56:18;2.47;;;0.88;;
43184;SDS011;28803;52.308;19.096;2022-08-07T07:58:57;3.50;;;0.50;;
43184;SDS011;28803;52.308;19.096;2022-08-07T08:01:28;3.53;;;0.70;;
43184;SDS011;28803;52.308;19.096;2022-08-07T08:04:17;3.75;;;0.70;;
43184;SDS011;28803;52.308;19.096;2022-08-07T08:06:51;1.88;;;0.50;;
43184;SDS011;28803;52.308;19.096;2022-08-07T08:09:23;3.08;;;0.93;;
43184;SDS011;28803;52.308;19.096;2022-08-07T08:11:55;1.65;;;0.63;;
43184;SDS011;28803;52.308;19.096;2022-08-07T08:14:30;3.00;;;0.90;;
43184;SDS011;28803;52.308;19.096;2022-08-07T08:17:03;3.08;;;0.60;;
43184;SDS011;28803;52.308;19.096;2022-08-07T08:19:54;1.88;;;0.90;;
43184;SDS011;28803;52.308;19.096;2022-08-07T08:22:46;1.60;;;0.40;;
43184;SDS011;28803;52.308;19.096;2022-08-07T08:25:33;8.98;;;1.15;;
43184;SDS011;28803;52.308;19.096;2022-08-07T08:28:31;4.65;;;0.95;;
43184;SDS011;28803;52.308;19.096;2022-08-07T08:31:11;2.78;;;0.60;;
43184;SDS011;28803;52.308;19.096;2022-08-07T08:33:56;3.72;;;0.80;;
43184;SDS011;28803;52.308;19.096;2022-08-07T08:36:26;2.08;;;0.93;;
43184;SDS011;28803;52.308;19.096;2022-08-07T08:38:56;3.28;;;0.50;;
43184;SDS011;28803;52.308;19.096;2022-08-07T08:47:25;1.90;;;0.60;;
43184;SDS011;28803;52.308;19.096;2022-08-07T08:55:49;8.98;;;4.68;;
43184;SDS011;28803;52.308;19.096;2022-08-07T09:04:13;1.35;;;0.60;;
43184;SDS011;28803;52.308;19.096;2022-08-07T09:18:22;1.33;;;0.60;;
43184;SDS011;28803;52.308;19.096;2022-08-07T09:20:56;2.38;;;0.70;;
43184;SDS011;28803;52.308;19.096;2022-08-07T09:30:22;2.95;;;0.75;;
43184;SDS011;28803;52.308;19.096;2022-08-07T09:33:02;3.85;;;0.90;;
43184;SDS011;28803;52.308;19.096;2022-08-07T09:35:58;2.35;;;0.73;;
43184;SDS011;28803;52.308;19.096;2022-08-07T09:38:37;3.70;;;0.75;;
43184;SDS011;28803;52.308;19.096;2022-08-07T09:41:28;2.35;;;0.80;;
43184;SDS011;28803;52.308;19.096;2022-08-07T09:47:33;4.13;;;0.90;;
43184;SDS011;28803;52.308;19.096;2022-08-07T09:50:32;6.15;;;1.77;;
43184;SDS011;28803;52.308;19.096;2022-08-07T09:53:09;4.13;;;1.10;;
43184;SDS011;28803;52.308;19.096;2022-08-07T10:20:07;2.97;;;0.80;;
43184;SDS011;28803;52.308;19.096;2022-08-07T10:35:11;3.00;;;0.95;;
43184;SDS011;28803;52.308;19.096;2022-08-07T10:44:11;2.35;;;0.70;;
43184;SDS011;28803;52.308;19.096;2022-08-07T10:50:12;3.03;;;1.08;;
43184;SDS011;28803;52.308;19.096;2022-08-07T10:56:13;2.88;;;0.70;;
43184;SDS011;28803;52.308;19.096;2022-08-07T10:59:05;2.72;;;0.90;;
43184;SDS011;28803;52.308;19.096;2022-08-07T11:02:32;2.47;;;0.93;;
43184;SDS011;28803;52.308;19.096;2022-08-07T11:11:13;3.72;;;1.00;;
43184;SDS011;28803;52.308;19.096;2022-08-07T11:17:00;1.77;;;0.85;;
43184;SDS011;28803;52.308;19.096;2022-08-07T11:19:52;3.67;;;0.90;;
43184;SDS011;28803;52.308;19.096;2022-08-07T11:22:33;5.82;;;0.98;;
43184;SDS011;28803;52.308;19.096;2022-08-07T11:27:53;2.75;;;1.00;;
43184;SDS011;28803;52.308;19.096;2022-08-07T11:30:34;4.47;;;1.20;;
43184;SDS011;28803;52.308;19.096;2022-08-07T11:36:19;2.67;;;1.00;;
43184;SDS011;28803;52.308;19.096;2022-08-07T11:39:05;2.42;;;0.95;;
43184;SDS011;28803;52.308;19.096;2022-08-07T11:44:52;3.13;;;0.80;;
43184;SDS011;28803;52.308;19.096;2022-08-07T11:47:32;2.80;;;1.25;;
43184;SDS011;28803;52.308;19.096;2022-08-07T11:50:33;2.10;;;1.02;;
43184;SDS011;28803;52.308;19.096;2022-08-07T11:53:33;2.17;;;0.88;;
43184;SDS011;28803;52.308;19.096;2022-08-07T11:56:35;4.63;;;1.30;;
43184;SDS011;28803;52.308;19.096;2022-08-07T12:05:45;3.00;;;1.10;;
43184;SDS011;28803;52.308;19.096;2022-08-07T12:11:21;1.63;;;0.73;;
43184;SDS011;28803;52.308;19.096;2022-08-07T12:14:57;1.58;;;0.70;;
43184;SDS011;28803;52.308;19.096;2022-08-07T12:18:15;2.72;;;0.80;;
43184;SDS011;28803;52.308;19.096;2022-08-07T12:21:11;2.58;;;1.00;;
43184;SDS011;28803;52.308;19.096;2022-08-07T12:24:13;3.53;;;1.17;;
43184;SDS011;28803;52.308;19.096;2022-08-07T12:27:15;1.52;;;1.08;;
43184;SDS011;28803;52.308;19.096;2022-08-07T12:30:05;1.80;;;0.80;;
43184;SDS011;28803;52.308;19.096;2022-08-07T12:32:39;5.50;;;0.98;;
43184;SDS011;28803;52.308;19.096;2022-08-07T12:35:16;1.70;;;0.77;;
43184;SDS011;28803;52.308;19.096;2022-08-07T12:37:48;2.00;;;0.70;;
43184;SDS011;28803;52.308;19.096;2022-08-07T12:40:37;2.05;;;0.90;;
43184;SDS011;28803;52.308;19.096;2022-08-07T12:43:15;3.20;;;1.02;;
43184;SDS011;28803;52.308;19.096;2022-08-07T12:51:49;2.85;;;0.60;;
43184;SDS011;28803;52.308;19.096;2022-08-07T12:58:14;1.52;;;0.70;;
43184;SDS011;28803;52.308;19.096;2022-08-07T13:15:59;1.63;;;0.60;;
43184;SDS011;28803;52.308;19.096;2022-08-07T13:18:36;2.75;;;0.95;;
43184;SDS011;28803;52.308;19.096;2022-08-07T13:21:26;2.25;;;0.90;;
43184;SDS011;28803;52.308;19.096;2022-08-07T13:30:26;1.65;;;0.75;;
43184;SDS011;28803;52.308;19.096;2022-08-07T13:33:32;3.97;;;0.73;;
43184;SDS011;28803;52.308;19.096;2022-08-07T13:36:33;3.58;;;0.80;;
43184;SDS011;28803;52.308;19.096;2022-08-07T13:39:17;3.08;;;0.85;;
43184;SDS011;28803;52.308;19.096;2022-08-07T13:42:13;1.45;;;0.47;;
43184;SDS011;28803;52.308;19.096;2022-08-07T13:44:50;2.97;;;0.60;;
43184;SDS011;28803;52.308;19.096;2022-08-07T13:47:39;2.70;;;0.73;;
43184;SDS011;28803;52.308;19.096;2022-08-07T13:50:27;1.63;;;0.60;;
43184;SDS011;28803;52.308;19.096;2022-08-07T13:53:12;1.05;;;0.45;;
43184;SDS011;28803;52.308;19.096;2022-08-07T13:55:49;4.18;;;1.90;;
43184;SDS011;28803;52.308;19.096;2022-08-07T13:58:23;4.65;;;2.92;;
43184;SDS011;28803;52.308;19.096;2022-08-07T14:01:23;1.95;;;1.00;;
43184;SDS011;28803;52.308;19.096;2022-08-07T14:03:52;1.25;;;0.55;;
43184;SDS011;28803;52.308;19.096;2022-08-07T14:06:34;1.38;;;0.32;;
43184;SDS011;28803;52.308;19.096;2022-08-07T14:09:05;2.05;;;0.40;;
43184;SDS011;28803;52.308;19.096;2022-08-07T14:11:56;2.22;;;0.60;;
43184;SDS011;28803;52.308;19.096;2022-08-07T14:14:37;1.80;;;0.55;;
43184;SDS011;28803;52.308;19.096;2022-08-07T14:17:08;2.78;;;0.47;;
43184;SDS011;28803;52.308;19.096;2022-08-07T14:23:15;1.35;;;0.50;;
43184;SDS011;28803;52.308;19.096;2022-08-07T14:28:53;1.13;;;0.60;;
43184;SDS011;28803;52.308;19.096;2022-08-07T14:31:34;1.45;;;0.65;;
43184;SDS011;28803;52.308;19.096;2022-08-07T14:34:18;1.95;;;0.80;;
43184;SDS011;28803;52.308;19.096;2022-08-07T14:36:56;2.72;;;0.55;;
43184;SDS011;28803;52.308;19.096;2022-08-07T14:39:29;2.65;;;0.77;;
43184;SDS011;28803;52.308;19.096;2022-08-07T14:42:24;0.90;;;0.50;;
43184;SDS011;28803;52.308;19.096;2022-08-07T14:44:58;2.03;;;0.73;;
43184;SDS011;28803;52.308;19.096;2022-08-07T14:47:48;4.57;;;2.58;;
43184;SDS011;28803;52.308;19.096;2022-08-07T14:50:24;1.73;;;1.10;;
43184;SDS011;28803;52.308;19.096;2022-08-07T14:52:54;2.25;;;0.85;;
43184;SDS011;28803;52.308;19.096;2022-08-07T14:55:33;2.72;;;0.80;;
43184;SDS011;28803;52.308;19.096;2022-08-07T14:58:26;0.98;;;0.30;;
43184;SDS011;28803;52.308;19.096;2022-08-07T15:00:57;1.58;;;0.70;;
43184;SDS011;28803;52.308;19.096;2022-08-07T15:03:45;2.13;;;0.75;;
43184;SDS011;28803;52.308;19.096;2022-08-07T15:06:24;0.90;;;0.40;;
43184;SDS011;28803;52.308;19.096;2022-08-07T15:09:03;3.25;;;0.70;;
43184;SDS011;28803;52.308;19.096;2022-08-07T15:12:00;6.22;;;0.82;;
43184;SDS011;28803;52.308;19.096;2022-08-07T15:14:35;2.92;;;0.90;;
43184;SDS011;28803;52.308;19.096;2022-08-07T15:17:24;1.98;;;0.75;;
43184;SDS011;28803;52.308;19.096;2022-08-07T15:20:18;2.17;;;0.85;;
43184;SDS011;28803;52.308;19.096;2022-08-07T15:23:21;2.50;;;0.93;;
43184;SDS011;28803;52.308;19.096;2022-08-07T15:26:13;2.30;;;1.30;;
43184;SDS011;28803;52.308;19.096;2022-08-07T15:28:46;3.55;;;0.70;;
43184;SDS011;28803;52.308;19.096;2022-08-07T15:31:38;2.70;;;0.68;;
43184;SDS011;28803;52.308;19.096;2022-08-07T15:34:31;1.65;;;0.60;;
43184;SDS011;28803;52.308;19.096;2022-08-07T15:37:01;2.42;;;0.73;;
43184;SDS011;28803;52.308;19.096;2022-08-07T15:39:40;2.20;;;0.90;;
43184;SDS011;28803;52.308;19.096;2022-08-07T15:50:44;2.38;;;0.80;;
43184;SDS011;28803;52.308;19.096;2022-08-07T15:53:36;1.10;;;0.60;;
43184;SDS011;28803;52.308;19.096;2022-08-07T15:56:19;1.70;;;0.80;;
43184;SDS011;28803;52.308;19.096;2022-08-07T15:58:52;4.23;;;0.53;;
43184;SDS011;28803;52.308;19.096;2022-08-07T16:01:24;1.70;;;0.60;;
43184;SDS011;28803;52.308;19.096;2022-08-07T16:04:09;3.40;;;1.08;;
43184;SDS011;28803;52.308;19.096;2022-08-07T16:06:47;3.42;;;0.80;;
43184;SDS011;28803;52.308;19.096;2022-08-07T16:09:19;2.70;;;0.95;;
43184;SDS011;28803;52.308;19.096;2022-08-07T16:18:34;2.22;;;0.70;;
43184;SDS011;28803;52.308;19.096;2022-08-07T16:21:37;2.17;;;0.60;;
43184;SDS011;28803;52.308;19.096;2022-08-07T16:25:02;2.33;;;0.73;;
43184;SDS011;28803;52.308;19.096;2022-08-07T16:28:09;3.13;;;1.00;;
43184;SDS011;28803;52.308;19.096;2022-08-07T16:34:24;4.88;;;0.98;;
43184;SDS011;28803;52.308;19.096;2022-08-07T16:40:33;4.65;;;0.70;;
43184;SDS011;28803;52.308;19.096;2022-08-07T16:57:58;2.55;;;0.90;;
43184;SDS011;28803;52.308;19.096;2022-08-07T17:00:43;2.33;;;0.63;;
43184;SDS011;28803;52.308;19.096;2022-08-07T17:03:27;3.70;;;0.70;;
43184;SDS011;28803;52.308;19.096;2022-08-07T17:09:12;2.08;;;0.73;;
43184;SDS011;28803;52.308;19.096;2022-08-07T17:12:08;1.83;;;0.70;;
43184;SDS011;28803;52.308;19.096;2022-08-07T17:31:24;1.45;;;0.68;;
43184;SDS011;28803;52.308;19.096;2022-08-07T17:34:11;3.97;;;0.80;;
43184;SDS011;28803;52.308;19.096;2022-08-07T17:37:03;3.50;;;1.35;;
43184;SDS011;28803;52.308;19.096;2022-08-07T17:40:27;2.38;;;0.82;;
43184;SDS011;28803;52.308;19.096;2022-08-07T17:43:02;1.63;;;0.80;;
43184;SDS011;28803;52.308;19.096;2022-08-07T17:45:57;5.30;;;0.88;;
43184;SDS011;28803;52.308;19.096;2022-08-07T17:49:02;4.32;;;1.02;;
43184;SDS011;28803;52.308;19.096;2022-08-07T17:51:36;4.45;;;1.23;;
43184;SDS011;28803;52.308;19.096;2022-08-07T17:57:19;4.88;;;1.27;;
43184;SDS011;28803;52.308;19.096;2022-08-07T18:00:18;4.95;;;1.35;;
43184;SDS011;28803;52.308;19.096;2022-08-07T18:03:00;5.45;;;1.40;;
43184;SDS011;28803;52.308;19.096;2022-08-07T18:05:57;9.70;;;1.80;;
43184;SDS011;28803;52.308;19.096;2022-08-07T18:08:41;13.70;;;2.22;;
43184;SDS011;28803;52.308;19.096;2022-08-07T18:14:50;7.97;;;1.40;;
43184;SDS011;28803;52.308;19.096;2022-08-07T18:17:47;3.92;;;1.33;;
43184;SDS011;28803;52.308;19.096;2022-08-07T18:20:39;10.07;;;2.00;;
43184;SDS011;28803;52.308;19.096;2022-08-07T18:23:43;4.72;;;2.35;;
43184;SDS011;28803;52.308;19.096;2022-08-07T18:26:33;7.22;;;3.00;;
43184;SDS011;28803;52.308;19.096;2022-08-07T18:29:22;4.55;;;2.13;;
43184;SDS011;28803;52.308;19.096;2022-08-07T18:35:23;5.28;;;2.58;;
43184;SDS011;28803;52.308;19.096;2022-08-07T18:41:23;9.05;;;2.50;;
43184;SDS011;28803;52.308;19.096;2022-08-07T18:47:36;8.93;;;2.97;;
43184;SDS011;28803;52.308;19.096;2022-08-07T19:00:06;10.13;;;2.05;;
43184;SDS011;28803;52.308;19.096;2022-08-07T19:03:50;7.60;;;2.55;;
43184;SDS011;28803;52.308;19.096;2022-08-07T19:09:02;5.22;;;1.58;;
43184;SDS011;28803;52.308;19.096;2022-08-07T19:12:04;7.07;;;1.67;;
43184;SDS011;28803;52.308;19.096;2022-08-07T19:14:38;7.13;;;1.65;;
43184;SDS011;28803;52.308;19.096;2022-08-07T19:17:18;7.30;;;1.90;;
43184;SDS011;28803;52.308;19.096;2022-08-07T19:20:18;3.65;;;1.67;;
43184;SDS011;28803;52.308;19.096;2022-08-07T19:23:14;7.72;;;1.80;;
43184;SDS011;28803;52.308;19.096;2022-08-07T19:26:11;3.80;;;1.33;;
43184;SDS011;28803;52.308;19.096;2022-08-07T19:28:58;6.85;;;2.03;;
43184;SDS011;28803;52.308;19.096;2022-08-07T19:32:07;3.97;;;1.45;;
43184;SDS011;28803;52.308;19.096;2022-08-07T19:34:55;15.48;;;1.70;;
43184;SDS011;28803;52.308;19.096;2022-08-07T19:37:25;4.40;;;1.80;;
43184;SDS011;28803;52.308;19.096;2022-08-07T19:40:14;7.15;;;1.70;;
43184;SDS011;28803;52.308;19.096;2022-08-07T19:42:58;4.03;;;1.65;;
43184;SDS011;28803;52.308;19.096;2022-08-07T19:45:28;4.25;;;1.30;;
43184;SDS011;28803;52.308;19.096;2022-08-07T19:48:22;4.82;;;1.52;;
43184;SDS011;28803;52.308;19.096;2022-08-07T19:51:08;8.18;;;1.55;;
43184;SDS011;28803;52.308;19.096;2022-08-07T19:53:50;8.73;;;2.33;;
43184;SDS011;28803;52.308;19.096;2022-08-07T19:56:41;3.67;;;1.50;;
43184;SDS011;28803;52.308;19.096;2022-08-07T19:59:33;5.82;;;1.58;;
43184;SDS011;28803;52.308;19.096;2022-08-07T20:02:06;8.68;;;1.75;;
43184;SDS011;28803;52.308;19.096;2022-08-07T20:04:46;7.45;;;2.03;;
43184;SDS011;28803;52.308;19.096;2022-08-07T20:07:15;3.33;;;1.60;;